sensor_id;sensor_type;location;lat;lon;timestamp;pressure;altitude;pressure_sealevel;temperature;humidity
53659;BME280;41524;35.624;139.698;2023-03-14T00:00:18;102036.00;;;9.17;43.42
53659;BME280;41524;35.624;139.698;2023-03-14T00:05:11;102033.00;;;9.06;43.21
53659;BME280;41524;35.624;139.698;2023-03-14T00:10:13;102013.00;;;8.00;46.28
53659;BME280;41524;35.624;139.698;2023-03-14T00:15:12;102034.00;;;8.52;45.75
53659;BME280;41524;35.624;139.698;2023-03-14T00:20:13;102045.00;;;5.08;48.43
53659;BME280;41524;35.624;139.698;2023-03-14T00:25:12;102057.00;;;9.06;44.96
53659;BME280;41524;35.624;139.698;2023-03-14T00:30:12;102052.00;;;9.15;42.76
53659;BME280;41524;35.624;139.698;2023-03-14T00:35:10;102058.00;;;7.32;45.64
53659;BME280;41524;35.624;139.698;2023-03-14T00:40:17;102065.00;;;8.60;44.40
53659;BME280;41524;35.624;139.698;2023-03-14T00:45:20;102074.00;;;8.22;44.48
53659;BME280;41524;35.624;139.698;2023-03-14T00:50:11;102078.00;;;6.49;47.81
53659;BME280;41524;35.624;139.698;2023-03-14T00:55:10;102081.00;;;8.69;45.00
53659;BME280;41524;35.624;139.698;2023-03-14T01:00:13;102081.00;;;7.60;47.35
53659;BME280;41524;35.624;139.698;2023-03-14T01:05:13;102090.00;;;6.57;46.91
53659;BME280;41524;35.624;139.698;2023-03-14T01:10:11;102098.00;;;8.07;46.86
53659;BME280;41524;35.624;139.698;2023-03-14T01:15:14;102099.00;;;8.78;44.56
53659;BME280;41524;35.624;139.698;2023-03-14T01:20:18;102098.00;;;6.11;49.00
53659;BME280;41524;35.624;139.698;2023-03-14T01:25:16;102093.00;;;7.10;48.28
53659;BME280;41524;35.624;139.698;2023-03-14T01:30:12;102095.00;;;6.25;50.69
53659;BME280;41524;35.624;139.698;2023-03-14T01:35:15;102091.00;;;6.75;49.49
53659;BME280;41524;35.624;139.698;2023-03-14T01:40:12;102085.00;;;9.34;43.05
53659;BME280;41524;35.624;139.698;2023-03-14T01:46:19;102081.00;;;9.66;42.12
53659;BME280;41524;35.624;139.698;2023-03-14T01:50:13;102079.00;;;7.08;46.22
53659;BME280;41524;35.624;139.698;2023-03-14T01:55:15;102075.00;;;8.69;43.51
53659;BME280;41524;35.624;139.698;2023-03-14T02:00:13;102073.00;;;9.46;45.09
53659;BME280;41524;35.624;139.698;2023-03-14T02:05:14;102067.00;;;10.65;41.50
53659;BME280;41524;35.624;139.698;2023-03-14T02:10:11;102064.00;;;8.83;45.08
53659;BME280;41524;35.624;139.698;2023-03-14T02:15:11;102056.00;;;7.19;44.71
53659;BME280;41524;35.624;139.698;2023-03-14T02:20:21;102046.00;;;9.99;40.99
53659;BME280;41524;35.624;139.698;2023-03-14T02:25:14;102045.00;;;11.87;38.85
53659;BME280;41524;35.624;139.698;2023-03-14T02:30:13;102044.00;;;11.14;38.31
53659;BME280;41524;35.624;139.698;2023-03-14T02:35:14;102040.00;;;11.54;37.40
53659;BME280;41524;35.624;139.698;2023-03-14T02:40:16;102040.00;;;10.22;40.24
53659;BME280;41524;35.624;139.698;2023-03-14T02:45:36;102036.00;;;12.26;35.56
53659;BME280;41524;35.624;139.698;2023-03-14T02:50:15;102023.00;;;11.65;36.41
53659;BME280;41524;35.624;139.698;2023-03-14T02:55:11;102020.00;;;12.04;35.54
53659;BME280;41524;35.624;139.698;2023-03-14T03:00:14;102017.00;;;12.96;36.29
53659;BME280;41524;35.624;139.698;2023-03-14T03:05:11;102017.00;;;12.70;33.23
53659;BME280;41524;35.624;139.698;2023-03-14T03:10:12;102014.00;;;10.31;36.59
53659;BME280;41524;35.624;139.698;2023-03-14T03:15:15;102003.00;;;11.51;35.65
53659;BME280;41524;35.624;139.698;2023-03-14T03:20:11;101991.00;;;12.58;35.41
53659;BME280;41524;35.624;139.698;2023-03-14T03:25:11;101985.00;;;12.76;33.97
53659;BME280;41524;35.624;139.698;2023-03-14T03:30:12;101978.00;;;12.19;33.02
53659;BME280;41524;35.624;139.698;2023-03-14T03:35:10;101979.00;;;12.15;33.44
53659;BME280;41524;35.624;139.698;2023-03-14T03:40:12;101964.00;;;12.11;34.75
53659;BME280;41524;35.624;139.698;2023-03-14T03:45:15;101961.00;;;9.93;37.87
53659;BME280;41524;35.624;139.698;2023-03-14T03:50:12;101953.00;;;12.56;33.59
53659;BME280;41524;35.624;139.698;2023-03-14T03:55:21;101938.00;;;12.14;33.44
53659;BME280;41524;35.624;139.698;2023-03-14T04:00:12;101939.00;;;12.37;32.77
53659;BME280;41524;35.624;139.698;2023-03-14T04:05:11;101926.00;;;11.34;37.71
53659;BME280;41524;35.624;139.698;2023-03-14T04:10:12;101918.00;;;13.61;31.26
53659;BME280;41524;35.624;139.698;2023-03-14T04:15:12;101913.00;;;13.51;31.38
53659;BME280;41524;35.624;139.698;2023-03-14T04:20:13;101903.00;;;12.57;32.52
53659;BME280;41524;35.624;139.698;2023-03-14T04:25:20;101899.00;;;10.26;35.44
53659;BME280;41524;35.624;139.698;2023-03-14T04:30:16;101901.00;;;11.61;34.25
53659;BME280;41524;35.624;139.698;2023-03-14T04:35:16;101890.00;;;13.92;30.49
53659;BME280;41524;35.624;139.698;2023-03-14T04:40:13;101895.00;;;11.77;34.10
53659;BME280;41524;35.624;139.698;2023-03-14T04:45:11;101905.00;;;14.12;30.57
53659;BME280;41524;35.624;139.698;2023-03-14T04:50:15;101913.00;;;13.23;31.55
53659;BME280;41524;35.624;139.698;2023-03-14T04:55:21;101913.00;;;11.76;33.28
53659;BME280;41524;35.624;139.698;2023-03-14T05:00:11;101912.00;;;12.04;32.67
53659;BME280;41524;35.624;139.698;2023-03-14T05:05:11;101911.00;;;13.79;30.02
53659;BME280;41524;35.624;139.698;2023-03-14T05:10:11;101918.00;;;11.98;33.27
53659;BME280;41524;35.624;139.698;2023-03-14T05:15:12;101921.00;;;12.01;32.68
53659;BME280;41524;35.624;139.698;2023-03-14T05:20:12;101918.00;;;13.05;31.86
53659;BME280;41524;35.624;139.698;2023-03-14T05:25:21;101918.00;;;14.11;31.33
53659;BME280;41524;35.624;139.698;2023-03-14T05:30:13;101923.00;;;13.00;31.92
53659;BME280;41524;35.624;139.698;2023-03-14T05:35:17;101925.00;;;13.16;32.25
53659;BME280;41524;35.624;139.698;2023-03-14T05:40:11;101921.00;;;12.74;32.13
53659;BME280;41524;35.624;139.698;2023-03-14T05:45:11;101915.00;;;13.28;31.59
53659;BME280;41524;35.624;139.698;2023-03-14T05:50:11;101912.00;;;12.79;32.58
53659;BME280;41524;35.624;139.698;2023-03-14T05:55:11;101918.00;;;13.59;31.85
53659;BME280;41524;35.624;139.698;2023-03-14T06:00:16;101928.00;;;12.97;32.56
53659;BME280;41524;35.624;139.698;2023-03-14T06:05:18;101939.00;;;12.70;33.78
53659;BME280;41524;35.624;139.698;2023-03-14T06:10:12;101936.00;;;13.29;32.55
53659;BME280;41524;35.624;139.698;2023-03-14T06:15:11;101945.00;;;11.21;36.10
53659;BME280;41524;35.624;139.698;2023-03-14T06:20:11;101946.00;;;13.23;32.42
53659;BME280;41524;35.624;139.698;2023-03-14T06:25:11;101951.00;;;11.95;34.96
53659;BME280;41524;35.624;139.698;2023-03-14T06:30:17;101947.00;;;13.51;32.65
53659;BME280;41524;35.624;139.698;2023-03-14T06:35:15;101959.00;;;12.67;33.66
53659;BME280;41524;35.624;139.698;2023-03-14T06:40:13;101961.00;;;12.80;32.91
53659;BME280;41524;35.624;139.698;2023-03-14T06:45:18;101966.00;;;12.82;32.96
53659;BME280;41524;35.624;139.698;2023-03-14T06:50:16;101964.00;;;11.82;33.83
53659;BME280;41524;35.624;139.698;2023-03-14T06:55:13;101971.00;;;14.20;32.02
53659;BME280;41524;35.624;139.698;2023-03-14T07:00:17;101977.00;;;12.48;32.79
53659;BME280;41524;35.624;139.698;2023-03-14T07:05:11;101977.00;;;11.24;34.70
53659;BME280;41524;35.624;139.698;2023-03-14T07:10:13;101987.00;;;12.00;34.06
53659;BME280;41524;35.624;139.698;2023-03-14T07:15:16;101988.00;;;12.83;33.00
53659;BME280;41524;35.624;139.698;2023-03-14T07:20:12;102000.00;;;11.65;34.17
53659;BME280;41524;35.624;139.698;2023-03-14T07:25:12;101997.00;;;12.98;32.87
53659;BME280;41524;35.624;139.698;2023-03-14T07:35:11;102011.00;;;11.39;34.50
53659;BME280;41524;35.624;139.698;2023-03-14T07:40:15;102012.00;;;11.55;34.51
53659;BME280;41524;35.624;139.698;2023-03-14T07:45:22;102015.00;;;12.37;33.43
53659;BME280;41524;35.624;139.698;2023-03-14T07:50:12;102020.00;;;12.61;33.11
53659;BME280;41524;35.624;139.698;2023-03-14T07:55:12;102025.00;;;12.48;33.28
53659;BME280;41524;35.624;139.698;2023-03-14T08:00:18;102023.00;;;11.77;34.18
53659;BME280;41524;35.624;139.698;2023-03-14T08:05:10;102024.00;;;11.52;34.56
53659;BME280;41524;35.624;139.698;2023-03-14T08:10:12;102035.00;;;9.64;37.38
53659;BME280;41524;35.624;139.698;2023-03-14T08:15:19;102038.00;;;9.76;37.96
53659;BME280;41524;35.624;139.698;2023-03-14T08:20:16;102054.00;;;11.05;36.93
53659;BME280;41524;35.624;139.698;2023-03-14T08:25:16;102056.00;;;12.37;34.72
53659;BME280;41524;35.624;139.698;2023-03-14T08:30:14;102057.00;;;11.90;35.05
53659;BME280;41524;35.624;139.698;2023-03-14T08:35:16;102071.00;;;12.49;34.68
53659;BME280;41524;35.624;139.698;2023-03-14T08:40:16;102075.00;;;10.40;37.10
53659;BME280;41524;35.624;139.698;2023-03-14T08:45:16;102083.00;;;11.33;36.17
53659;BME280;41524;35.624;139.698;2023-03-14T08:50:16;102091.00;;;11.11;36.65
53659;BME280;41524;35.624;139.698;2023-03-14T08:55:13;102101.00;;;9.77;39.26
53659;BME280;41524;35.624;139.698;2023-03-14T09:00:13;102112.00;;;11.24;36.67
53659;BME280;41524;35.624;139.698;2023-03-14T09:05:15;102115.00;;;11.46;38.37
53659;BME280;41524;35.624;139.698;2023-03-14T09:10:11;102120.00;;;11.07;37.88
53659;BME280;41524;35.624;139.698;2023-03-14T09:15:11;102132.00;;;9.89;42.42
53659;BME280;41524;35.624;139.698;2023-03-14T09:20:17;102148.00;;;9.95;44.22
53659;BME280;41524;35.624;139.698;2023-03-14T09:25:11;102164.00;;;9.12;45.67
53659;BME280;41524;35.624;139.698;2023-03-14T09:30:12;102169.00;;;9.37;45.64
53659;BME280;41524;35.624;139.698;2023-03-14T09:35:11;102184.00;;;8.91;46.84
53659;BME280;41524;35.624;139.698;2023-03-14T09:40:15;102193.00;;;9.57;45.34
53659;BME280;41524;35.624;139.698;2023-03-14T09:45:15;102202.00;;;9.53;45.75
53659;BME280;41524;35.624;139.698;2023-03-14T09:50:16;102220.00;;;8.42;47.70
53659;BME280;41524;35.624;139.698;2023-03-14T09:55:16;102230.00;;;9.01;46.22
53659;BME280;41524;35.624;139.698;2023-03-14T10:00:28;102236.00;;;8.06;48.17
53659;BME280;41524;35.624;139.698;2023-03-14T10:05:16;102238.00;;;9.81;45.35
53659;BME280;41524;35.624;139.698;2023-03-14T10:10:19;102248.00;;;8.79;45.69
53659;BME280;41524;35.624;139.698;2023-03-14T10:15:13;102257.00;;;9.47;44.86
53659;BME280;41524;35.624;139.698;2023-03-14T10:20:32;102271.00;;;9.29;44.42
53659;BME280;41524;35.624;139.698;2023-03-14T10:25:27;102274.00;;;9.49;43.12
53659;BME280;41524;35.624;139.698;2023-03-14T10:30:32;102285.00;;;9.23;43.09
53659;BME280;41524;35.624;139.698;2023-03-14T10:35:22;102294.00;;;9.34;42.57
53659;BME280;41524;35.624;139.698;2023-03-14T10:40:14;102297.00;;;9.51;42.28
53659;BME280;41524;35.624;139.698;2023-03-14T10:45:31;102296.00;;;9.47;42.30
53659;BME280;41524;35.624;139.698;2023-03-14T10:50:28;102305.00;;;8.96;43.49
53659;BME280;41524;35.624;139.698;2023-03-14T10:55:13;102310.00;;;9.19;43.11
53659;BME280;41524;35.624;139.698;2023-03-14T11:00:16;102319.00;;;8.54;44.53
53659;BME280;41524;35.624;139.698;2023-03-14T11:05:21;102329.00;;;8.63;44.39
53659;BME280;41524;35.624;139.698;2023-03-14T11:10:19;102332.00;;;8.53;44.77
53659;BME280;41524;35.624;139.698;2023-03-14T11:15:21;102338.00;;;8.13;46.26
53659;BME280;41524;35.624;139.698;2023-03-14T11:20:29;102344.00;;;8.62;45.33
53659;BME280;41524;35.624;139.698;2023-03-14T11:25:19;102351.00;;;8.28;46.14
53659;BME280;41524;35.624;139.698;2023-03-14T11:30:20;102349.00;;;8.04;46.32
53659;BME280;41524;35.624;139.698;2023-03-14T11:35:19;102356.00;;;8.59;45.60
53659;BME280;41524;35.624;139.698;2023-03-14T11:40:16;102362.00;;;7.94;46.36
53659;BME280;41524;35.624;139.698;2023-03-14T11:45:22;102361.00;;;8.40;45.73
53659;BME280;41524;35.624;139.698;2023-03-14T11:50:16;102369.00;;;7.84;46.75
53659;BME280;41524;35.624;139.698;2023-03-14T11:55:18;102380.00;;;7.08;47.59
53659;BME280;41524;35.624;139.698;2023-03-14T12:00:17;102383.00;;;7.94;46.52
53659;BME280;41524;35.624;139.698;2023-03-14T12:05:50;102387.00;;;8.88;44.29
53659;BME280;41524;35.624;139.698;2023-03-14T12:10:16;102396.00;;;8.82;45.12
53659;BME280;41524;35.624;139.698;2023-03-14T12:15:22;102400.00;;;8.94;44.25
53659;BME280;41524;35.624;139.698;2023-03-14T12:20:24;102410.00;;;8.08;45.96
53659;BME280;41524;35.624;139.698;2023-03-14T12:25:28;102423.00;;;7.52;47.76
53659;BME280;41524;35.624;139.698;2023-03-14T12:30:34;102427.00;;;7.68;47.19
53659;BME280;41524;35.624;139.698;2023-03-14T12:35:36;102426.00;;;7.50;48.06
53659;BME280;41524;35.624;139.698;2023-03-14T12:40:20;102423.00;;;7.74;47.59
53659;BME280;41524;35.624;139.698;2023-03-14T12:45:28;102418.00;;;8.40;45.78
53659;BME280;41524;35.624;139.698;2023-03-14T12:50:20;102423.00;;;8.55;45.18
53659;BME280;41524;35.624;139.698;2023-03-14T12:55:13;102423.00;;;9.25;44.38
53659;BME280;41524;35.624;139.698;2023-03-14T13:05:16;102431.00;;;7.58;46.91
53659;BME280;41524;35.624;139.698;2023-03-14T13:10:27;102436.00;;;8.97;44.68
53659;BME280;41524;35.624;139.698;2023-03-14T13:15:19;102435.00;;;8.12;46.73
53659;BME280;41524;35.624;139.698;2023-03-14T13:20:23;102437.00;;;7.81;47.31
53659;BME280;41524;35.624;139.698;2023-03-14T13:25:20;102445.00;;;8.49;45.69
53659;BME280;41524;35.624;139.698;2023-03-14T13:30:20;102451.00;;;9.05;45.43
53659;BME280;41524;35.624;139.698;2023-03-14T13:35:18;102457.00;;;6.97;49.83
53659;BME280;41524;35.624;139.698;2023-03-14T13:40:25;102460.00;;;8.62;46.27
53659;BME280;41524;35.624;139.698;2023-03-14T13:45:14;102467.00;;;8.15;47.35
53659;BME280;41524;35.624;139.698;2023-03-14T13:50:23;102474.00;;;8.60;46.50
53659;BME280;41524;35.624;139.698;2023-03-14T13:55:17;102481.00;;;6.27;52.12
53659;BME280;41524;35.624;139.698;2023-03-14T14:00:20;102474.00;;;8.89;46.24
53659;BME280;41524;35.624;139.698;2023-03-14T14:05:16;102471.00;;;8.34;46.80
53659;BME280;41524;35.624;139.698;2023-03-14T14:10:13;102475.00;;;9.38;45.44
53659;BME280;41524;35.624;139.698;2023-03-14T14:15:16;102481.00;;;6.84;49.70
53659;BME280;41524;35.624;139.698;2023-03-14T14:20:18;102474.00;;;9.32;45.87
53659;BME280;41524;35.624;139.698;2023-03-14T14:25:16;102465.00;;;8.25;48.68
53659;BME280;41524;35.624;139.698;2023-03-14T14:30:30;102465.00;;;8.56;47.12
53659;BME280;41524;35.624;139.698;2023-03-14T14:35:23;102470.00;;;7.37;50.64
53659;BME280;41524;35.624;139.698;2023-03-14T14:40:18;102476.00;;;9.45;45.68
53659;BME280;41524;35.624;139.698;2023-03-14T14:45:17;102482.00;;;8.18;47.65
53659;BME280;41524;35.624;139.698;2023-03-14T14:50:28;102479.00;;;8.33;47.42
53659;BME280;41524;35.624;139.698;2023-03-14T14:55:18;102481.00;;;8.91;46.54
53659;BME280;41524;35.624;139.698;2023-03-14T15:00:26;102473.00;;;7.58;49.53
53659;BME280;41524;35.624;139.698;2023-03-14T15:05:14;102474.00;;;8.54;48.33
53659;BME280;41524;35.624;139.698;2023-03-14T15:10:20;102471.00;;;7.62;49.08
53659;BME280;41524;35.624;139.698;2023-03-14T15:15:11;102475.00;;;8.02;48.05
53659;BME280;41524;35.624;139.698;2023-03-14T15:20:13;102477.00;;;8.52;47.31
53659;BME280;41524;35.624;139.698;2023-03-14T15:25:13;102481.00;;;8.36;48.11
53659;BME280;41524;35.624;139.698;2023-03-14T15:30:17;102485.00;;;8.28;48.06
53659;BME280;41524;35.624;139.698;2023-03-14T15:35:11;102483.00;;;8.77;47.52
53659;BME280;41524;35.624;139.698;2023-03-14T15:40:13;102494.00;;;6.51;51.37
53659;BME280;41524;35.624;139.698;2023-03-14T15:45:11;102499.00;;;6.59;51.27
53659;BME280;41524;35.624;139.698;2023-03-14T15:50:12;102488.00;;;8.16;48.04
53659;BME280;41524;35.624;139.698;2023-03-14T15:55:16;102497.00;;;6.85;51.02
53659;BME280;41524;35.624;139.698;2023-03-14T16:00:15;102491.00;;;7.27;50.33
53659;BME280;41524;35.624;139.698;2023-03-14T16:05:13;102494.00;;;8.42;47.79
53659;BME280;41524;35.624;139.698;2023-03-14T16:10:13;102501.00;;;8.71;47.18
53659;BME280;41524;35.624;139.698;2023-03-14T16:15:12;102500.00;;;9.08;46.43
53659;BME280;41524;35.624;139.698;2023-03-14T16:20:12;102498.00;;;8.60;46.72
53659;BME280;41524;35.624;139.698;2023-03-14T16:25:11;102496.00;;;9.50;45.33
53659;BME280;41524;35.624;139.698;2023-03-14T16:30:11;102498.00;;;9.44;45.58
53659;BME280;41524;35.624;139.698;2023-03-14T16:35:14;102499.00;;;8.61;46.62
53659;BME280;41524;35.624;139.698;2023-03-14T16:40:12;102498.00;;;9.03;46.20
53659;BME280;41524;35.624;139.698;2023-03-14T16:45:12;102495.00;;;9.60;45.13
53659;BME280;41524;35.624;139.698;2023-03-14T16:50:12;102497.00;;;9.47;45.28
53659;BME280;41524;35.624;139.698;2023-03-14T16:55:11;102497.00;;;8.88;45.88
53659;BME280;41524;35.624;139.698;2023-03-14T17:00:15;102496.00;;;8.48;46.68
53659;BME280;41524;35.624;139.698;2023-03-14T17:05:10;102495.00;;;9.24;45.66
53659;BME280;41524;35.624;139.698;2023-03-14T17:10:11;102493.00;;;9.18;45.85
53659;BME280;41524;35.624;139.698;2023-03-14T17:15:15;102495.00;;;9.12;46.22
53659;BME280;41524;35.624;139.698;2023-03-14T17:20:14;102502.00;;;9.52;45.26
53659;BME280;41524;35.624;139.698;2023-03-14T17:25:11;102497.00;;;7.80;47.16
53659;BME280;41524;35.624;139.698;2023-03-14T17:30:31;102491.00;;;7.55;48.61
53659;BME280;41524;35.624;139.698;2023-03-14T17:35:10;102492.00;;;7.21;49.58
53659;BME280;41524;35.624;139.698;2023-03-14T17:40:11;102487.00;;;9.06;46.39
53659;BME280;41524;35.624;139.698;2023-03-14T17:45:19;102485.00;;;9.26;46.26
53659;BME280;41524;35.624;139.698;2023-03-14T17:50:11;102479.00;;;8.41;47.24
53659;BME280;41524;35.624;139.698;2023-03-14T17:55:12;102481.00;;;6.80;50.35
53659;BME280;41524;35.624;139.698;2023-03-14T18:00:12;102480.00;;;7.54;49.58
53659;BME280;41524;35.624;139.698;2023-03-14T18:05:12;102476.00;;;8.65;46.31
53659;BME280;41524;35.624;139.698;2023-03-14T18:10:12;102479.00;;;6.82;50.27
53659;BME280;41524;35.624;139.698;2023-03-14T18:15:11;102477.00;;;6.83;49.88
53659;BME280;41524;35.624;139.698;2023-03-14T18:20:11;102470.00;;;7.94;48.09
53659;BME280;41524;35.624;139.698;2023-03-14T18:25:16;102478.00;;;8.34;47.36
53659;BME280;41524;35.624;139.698;2023-03-14T18:30:17;102485.00;;;6.06;51.67
53659;BME280;41524;35.624;139.698;2023-03-14T18:35:11;102483.00;;;8.81;47.45
53659;BME280;41524;35.624;139.698;2023-03-14T18:40:12;102479.00;;;9.14;46.22
53659;BME280;41524;35.624;139.698;2023-03-14T18:45:13;102486.00;;;6.95;50.49
53659;BME280;41524;35.624;139.698;2023-03-14T18:50:12;102490.00;;;9.06;46.67
53659;BME280;41524;35.624;139.698;2023-03-14T18:55:16;102498.00;;;6.57;50.77
53659;BME280;41524;35.624;139.698;2023-03-14T19:00:11;102498.00;;;8.45;47.84
53659;BME280;41524;35.624;139.698;2023-03-14T19:05:11;102498.00;;;7.61;49.24
53659;BME280;41524;35.624;139.698;2023-03-14T19:10:12;102500.00;;;8.75;47.64
53659;BME280;41524;35.624;139.698;2023-03-14T19:15:11;102506.00;;;8.87;47.27
53659;BME280;41524;35.624;139.698;2023-03-14T19:20:12;102510.00;;;8.49;47.98
53659;BME280;41524;35.624;139.698;2023-03-14T19:25:11;102517.00;;;8.28;48.35
53659;BME280;41524;35.624;139.698;2023-03-14T19:30:16;102517.00;;;8.65;47.76
53659;BME280;41524;35.624;139.698;2023-03-14T19:35:11;102524.00;;;8.89;47.48
53659;BME280;41524;35.624;139.698;2023-03-14T19:40:12;102530.00;;;8.82;47.46
53659;BME280;41524;35.624;139.698;2023-03-14T19:45:11;102537.00;;;8.55;47.95
53659;BME280;41524;35.624;139.698;2023-03-14T19:50:17;102547.00;;;8.74;47.59
53659;BME280;41524;35.624;139.698;2023-03-14T19:55:12;102550.00;;;9.50;46.61
53659;BME280;41524;35.624;139.698;2023-03-14T20:00:11;102556.00;;;9.18;46.89
53659;BME280;41524;35.624;139.698;2023-03-14T20:05:12;102566.00;;;8.54;47.86
53659;BME280;41524;35.624;139.698;2023-03-14T20:10:11;102569.00;;;8.24;48.52
53659;BME280;41524;35.624;139.698;2023-03-14T20:15:13;102576.00;;;8.71;47.93
53659;BME280;41524;35.624;139.698;2023-03-14T20:20:12;102582.00;;;8.48;47.99
53659;BME280;41524;35.624;139.698;2023-03-14T20:25:13;102583.00;;;8.43;48.33
53659;BME280;41524;35.624;139.698;2023-03-14T20:30:13;102584.00;;;8.93;47.48
53659;BME280;41524;35.624;139.698;2023-03-14T20:35:16;102596.00;;;8.44;48.18
53659;BME280;41524;35.624;139.698;2023-03-14T20:40:12;102596.00;;;8.54;47.99
53659;BME280;41524;35.624;139.698;2023-03-14T20:45:11;102604.00;;;8.69;47.70
53659;BME280;41524;35.624;139.698;2023-03-14T20:50:11;102605.00;;;9.25;46.66
53659;BME280;41524;35.624;139.698;2023-03-14T20:55:16;102600.00;;;8.32;48.36
53659;BME280;41524;35.624;139.698;2023-03-14T21:00:13;102606.00;;;8.83;47.42
53659;BME280;41524;35.624;139.698;2023-03-14T21:05:12;102616.00;;;8.81;47.81
53659;BME280;41524;35.624;139.698;2023-03-14T21:10:12;102623.00;;;8.21;48.44
53659;BME280;41524;35.624;139.698;2023-03-14T21:15:12;102626.00;;;8.31;48.99
53659;BME280;41524;35.624;139.698;2023-03-14T21:20:13;102630.00;;;9.31;46.75
53659;BME280;41524;35.624;139.698;2023-03-14T21:25:12;102639.00;;;8.70;47.64
53659;BME280;41524;35.624;139.698;2023-03-14T21:30:12;102650.00;;;7.60;49.67
53659;BME280;41524;35.624;139.698;2023-03-14T21:35:10;102649.00;;;9.12;47.15
53659;BME280;41524;35.624;139.698;2023-03-14T21:40:12;102655.00;;;7.44;51.44
53659;BME280;41524;35.624;139.698;2023-03-14T21:45:17;102659.00;;;9.61;46.40
53659;BME280;41524;35.624;139.698;2023-03-14T21:50:21;102660.00;;;9.19;47.38
53659;BME280;41524;35.624;139.698;2023-03-14T21:55:11;102668.00;;;10.10;47.36
53659;BME280;41524;35.624;139.698;2023-03-14T22:00:13;102670.00;;;9.72;46.34
53659;BME280;41524;35.624;139.698;2023-03-14T22:05:21;102675.00;;;9.59;47.22
53659;BME280;41524;35.624;139.698;2023-03-14T22:10:22;102679.00;;;8.85;49.76
53659;BME280;41524;35.624;139.698;2023-03-14T22:15:16;102682.00;;;9.90;49.05
53659;BME280;41524;35.624;139.698;2023-03-14T22:20:12;102684.00;;;9.59;48.82
53659;BME280;41524;35.624;139.698;2023-03-14T22:25:17;102684.00;;;9.99;49.09
53659;BME280;41524;35.624;139.698;2023-03-14T22:30:12;102692.00;;;10.36;49.30
53659;BME280;41524;35.624;139.698;2023-03-14T22:35:12;102696.00;;;11.26;47.19
53659;BME280;41524;35.624;139.698;2023-03-14T22:40:13;102703.00;;;9.65;48.50
53659;BME280;41524;35.624;139.698;2023-03-14T22:45:12;102710.00;;;8.00;49.52
53659;BME280;41524;35.624;139.698;2023-03-14T22:50:15;102701.00;;;10.71;46.99
53659;BME280;41524;35.624;139.698;2023-03-14T22:55:16;102708.00;;;10.08;47.19
53659;BME280;41524;35.624;139.698;2023-03-14T23:00:16;102718.00;;;10.92;46.72
53659;BME280;41524;35.624;139.698;2023-03-14T23:05:11;102723.00;;;10.46;48.49
53659;BME280;41524;35.624;139.698;2023-03-14T23:10:22;102723.00;;;9.69;47.72
53659;BME280;41524;35.624;139.698;2023-03-14T23:15:16;102718.00;;;11.30;45.00
53659;BME280;41524;35.624;139.698;2023-03-14T23:20:14;102724.00;;;11.33;47.20
53659;BME280;41524;35.624;139.698;2023-03-14T23:25:19;102723.00;;;11.52;48.25
53659;BME280;41524;35.624;139.698;2023-03-14T23:30:13;102719.00;;;10.03;47.77
53659;BME280;41524;35.624;139.698;2023-03-14T23:35:12;102708.00;;;11.65;44.64
53659;BME280;41524;35.624;139.698;2023-03-14T23:45:10;102688.00;;;9.48;49.38
53659;BME280;41524;35.624;139.698;2023-03-14T23:50:16;102693.00;;;10.05;47.20
53659;BME280;41524;35.624;139.698;2023-03-14T23:55:16;102689.00;;;12.58;43.18
